Time;durP1;ratioP1;P1;durP2;ratioP2;P2;SDS_P1;SDS_P2;PMS_P1;PMS_P2;Temp;Humidity;BMP_temperature;BMP_pressure;BME280_temperature;BME280_humidity;BME280_pressure;Samples;Min_cycle;Max_cycle;Signal;HPM_P1;HPM_P2
2023/09/01 00:00:09;;;;;;;1.27;1.23;;;15.20;99.90;;;;;;5015494;28;20181;-72
2023/09/01 00:02:35;;;;;;;2.13;1.00;;;15.20;99.90;;;;;;5015278;28;20443;-72
2023/09/01 00:05:00;;;;;;;1.17;1.03;;;15.30;99.90;;;;;;5015508;28;20403;-73
2023/09/01 00:07:26;;;;;;;0.70;0.60;;;15.40;99.90;;;;;;5015491;28;20403;-72
2023/09/01 00:09:52;;;;;;;1.23;1.03;;;15.20;99.90;;;;;;5013871;28;20552;-73
2023/09/01 00:12:17;;;;;;;0.57;0.57;;;15.30;99.90;;;;;;5015098;28;20182;-72
2023/09/01 00:14:43;;;;;;;19.73;1.70;;;15.30;99.90;;;;;;5015184;28;20274;-73
2023/09/01 00:17:08;;;;;;;0.40;0.40;;;15.30;99.90;;;;;;5015219;28;20177;-73
2023/09/01 00:19:35;;;;;;;0.40;0.40;;;;;;;;;;5014900;28;20587;-74
2023/09/01 00:22:01;;;;;;;1.13;1.10;;;15.30;99.90;;;;;;5015147;28;20232;-72
2023/09/01 00:24:26;;;;;;;1.00;1.00;;;15.30;99.90;;;;;;5014985;28;20411;-73
2023/09/01 00:26:52;;;;;;;0.57;0.57;;;;;;;;;;5015303;28;20504;-74
2023/09/01 00:29:18;;;;;;;0.60;0.60;;;15.20;99.90;;;;;;5014781;28;20565;-73
2023/09/01 00:31:44;;;;;;;0.60;0.60;;;15.20;99.90;;;;;;5014921;28;20410;-73
2023/09/01 00:34:09;;;;;;;0.60;0.60;;;15.30;99.90;;;;;;5014752;28;20180;-72
2023/09/01 00:36:35;;;;;;;0.57;0.57;;;15.30;99.90;;;;;;5014998;28;20179;-74
2023/09/01 00:39:00;;;;;;;0.40;0.40;;;15.40;99.90;;;;;;5014842;28;20191;-74
2023/09/01 00:41:26;;;;;;;0.73;0.73;;;15.40;99.90;;;;;;5014707;28;20512;-71
2023/09/01 00:43:51;;;;;;;1.10;1.00;;;15.40;99.90;;;;;;5014467;28;20179;-74
2023/09/01 00:46:17;;;;;;;1.57;0.57;;;15.40;99.90;;;;;;5014661;28;20265;-72
2023/09/01 00:48:43;;;;;;;1.13;0.60;;;15.40;99.90;;;;;;5013188;28;20259;-72
2023/09/01 00:51:09;;;;;;;0.77;0.70;;;15.40;99.90;;;;;;5014513;28;20466;-74
2023/09/01 00:53:36;;;;;;;0.70;0.70;;;15.40;99.90;;;;;;5014315;28;20170;-74
2023/09/01 00:56:03;;;;;;;0.60;0.43;;;15.40;99.90;;;;;;5014419;28;20179;-72
2023/09/01 00:58:28;;;;;;;0.50;0.50;;;15.40;99.90;;;;;;5014688;28;20805;-71
2023/09/01 01:00:58;;;;;;;0.87;0.87;;;15.40;99.90;;;;;;5014396;28;20410;-72
2023/09/01 01:03:24;;;;;;;0.93;0.50;;;15.40;99.90;;;;;;5014115;28;20554;-73
2023/09/01 01:05:50;;;;;;;1.27;0.83;;;15.40;99.90;;;;;;5014416;28;20428;-73
2023/09/01 01:08:35;;;;;;;1.63;0.73;;;15.40;99.90;;;;;;5014140;28;20437;-73
2023/09/01 01:11:22;;;;;;;0.67;0.67;;;15.40;99.90;;;;;;5014135;28;20685;-72
2023/09/01 01:13:53;;;;;;;0.83;0.83;;;15.40;99.90;;;;;;5014156;28;20407;-73
2023/09/01 01:16:21;;;;;;;0.70;0.70;;;15.40;99.90;;;;;;5014354;28;20402;-72
2023/09/01 01:18:48;;;;;;;0.60;0.60;;;15.30;99.90;;;;;;5013878;28;20515;-73
2023/09/01 01:21:24;;;;;;;0.70;0.70;;;15.30;99.90;;;;;;5013975;28;20426;-72
2023/09/01 01:23:51;;;;;;;0.67;0.67;;;15.20;99.90;;;;;;5013545;28;20736;-71
2023/09/01 01:26:18;;;;;;;1.60;0.97;;;;;;;;;;5013939;28;20417;-73
2023/09/01 01:28:44;;;;;;;1.00;1.00;;;15.20;99.90;;;;;;5014018;28;20859;-74
2023/09/01 01:31:10;;;;;;;0.93;0.93;;;15.30;99.90;;;;;;5013707;28;20461;-71
2023/09/01 01:33:55;;;;;;;0.70;0.70;;;15.30;99.90;;;;;;5013693;28;20483;-73
2023/09/01 01:36:27;;;;;;;0.97;0.97;;;15.40;99.90;;;;;;5013971;28;20251;-72
2023/09/01 01:38:59;;;;;;;0.60;0.60;;;15.20;99.90;;;;;;5013896;28;20426;-74
2023/09/01 01:41:56;;;;;;;0.80;0.80;;;15.20;99.90;;;;;;5013770;28;20449;-73
2023/09/01 01:44:26;;;;;;;5.50;1.87;;;15.10;99.90;;;;;;5013588;28;20414;-74
2023/09/01 01:46:52;;;;;;;0.60;0.60;;;;;;;;;;5013748;28;20509;-72
2023/09/01 01:49:19;;;;;;;0.60;0.60;;;15.00;99.90;;;;;;5013581;28;20426;-72
2023/09/01 01:51:45;;;;;;;0.50;0.50;;;15.00;99.90;;;;;;5013776;28;20409;-72
2023/09/01 01:54:11;;;;;;;0.70;0.70;;;15.10;99.90;;;;;;5013401;28;20947;-72
2023/09/01 01:56:36;;;;;;;0.80;0.77;;;15.10;99.90;;;;;;5013570;28;20178;-72
2023/09/01 01:59:04;;;;;;;0.50;0.50;;;15.10;99.90;;;;;;5013517;28;20202;-73
2023/09/01 02:01:31;;;;;;;0.50;0.50;;;15.20;99.90;;;;;;5013790;28;20284;-73
2023/09/01 02:03:57;;;;;;;0.73;0.73;;;15.10;99.90;;;;;;5013447;28;20446;-74
2023/09/01 02:06:23;;;;;;;0.40;0.40;;;15.20;99.90;;;;;;5013689;28;20410;-73
2023/09/01 02:08:49;;;;;;;0.40;0.40;;;15.20;99.90;;;;;;5013546;28;20439;-74
2023/09/01 02:11:14;;;;;;;1.93;1.00;;;15.30;99.90;;;;;;5013295;28;20465;-71
2023/09/01 02:13:41;;;;;;;1.50;1.33;;;15.30;99.90;;;;;;5013407;28;20177;-72
2023/09/01 02:16:06;;;;;;;2.10;1.13;;;15.20;99.90;;;;;;5013500;28;20413;-74
2023/09/01 02:18:33;;;;;;;1.00;1.00;;;15.10;99.90;;;;;;5013364;28;20816;-73
2023/09/01 02:20:59;;;;;;;0.50;0.50;;;15.00;99.90;;;;;;5013293;28;20194;-74
2023/09/01 02:23:25;;;;;;;1.47;0.93;;;14.90;99.90;;;;;;5013067;28;20845;-72
2023/09/01 02:25:51;;;;;;;0.47;0.47;;;15.00;99.90;;;;;;5013378;28;20406;-71
2023/09/01 02:28:16;;;;;;;0.50;0.50;;;15.00;99.90;;;;;;5013216;28;20203;-71
2023/09/01 02:30:42;;;;;;;0.60;0.53;;;15.00;99.90;;;;;;5013172;28;20216;-71
2023/09/01 02:33:08;;;;;;;3.80;0.80;;;15.10;99.90;;;;;;5013186;28;20224;-71
2023/09/01 02:35:44;;;;;;;0.50;0.50;;;15.10;99.90;;;;;;5015813;28;20433;-74
2023/09/01 02:38:11;;;;;;;0.67;0.50;;;15.00;99.90;;;;;;5016979;28;20465;-74
2023/09/01 02:40:37;;;;;;;0.60;0.60;;;15.00;99.90;;;;;;5016972;28;20464;-74
2023/09/01 02:43:03;;;;;;;0.60;0.60;;;15.00;99.90;;;;;;5017090;28;20912;-72
2023/09/01 02:45:29;;;;;;;0.93;0.80;;;15.00;99.90;;;;;;5016977;28;20201;-74
2023/09/01 02:47:55;;;;;;;0.47;0.47;;;14.90;99.90;;;;;;5016799;28;20458;-73
2023/09/01 02:50:20;;;;;;;1.10;1.03;;;14.90;99.90;;;;;;5016612;28;20210;-72
2023/09/01 02:52:46;;;;;;;0.50;0.50;;;14.90;99.90;;;;;;5016741;28;20175;-72
2023/09/01 02:55:14;;;;;;;1.77;1.70;;;14.90;99.90;;;;;;5016680;28;20175;-72
2023/09/01 02:57:40;;;;;;;1.07;0.70;;;15.10;99.90;;;;;;5016735;28;20179;-72
2023/09/01 03:00:14;;;;;;;1.40;0.90;;;15.00;99.90;;;;;;5016638;28;20921;-71
2023/09/01 03:02:42;;;;;;;1.30;1.30;;;15.10;99.90;;;;;;5016603;28;20627;-72
2023/09/01 03:05:08;;;;;;;0.60;0.60;;;15.20;99.90;;;;;;5016617;28;20449;-74
2023/09/01 03:07:35;;;;;;;0.60;0.60;;;15.20;99.90;;;;;;5016327;28;20410;-74
2023/09/01 03:10:01;;;;;;;2.10;0.93;;;15.10;99.90;;;;;;5016607;28;20202;-74
2023/09/01 03:12:27;;;;;;;0.70;0.47;;;15.10;99.90;;;;;;5016235;28;20407;-73
2023/09/01 03:14:53;;;;;;;5.60;0.60;;;15.10;99.90;;;;;;5016427;28;20823;-74
2023/09/01 03:17:18;;;;;;;0.50;0.50;;;15.10;99.90;;;;;;5016395;28;20407;-74
2023/09/01 03:19:44;;;;;;;0.50;0.50;;;15.20;99.90;;;;;;5016031;28;20210;-73
2023/09/01 03:22:10;;;;;;;0.80;0.80;;;15.30;99.90;;;;;;5016162;28;20183;-73
2023/09/01 03:24:36;;;;;;;1.07;1.07;;;;;;;;;;5016186;28;20178;-73
2023/09/01 03:27:02;;;;;;;1.90;1.07;;;15.40;99.90;;;;;;5016068;28;20410;-72
2023/09/01 03:29:28;;;;;;;0.50;0.50;;;15.40;99.90;;;;;;5015866;28;20433;-74
2023/09/01 03:31:53;;;;;;;0.50;0.50;;;15.30;99.90;;;;;;5016130;28;20540;-72
2023/09/01 03:34:19;;;;;;;0.70;0.70;;;15.20;99.90;;;;;;5015758;28;20545;-71
2023/09/01 03:36:44;;;;;;;4.00;1.00;;;15.20;99.90;;;;;;5015573;28;20178;-71
2023/09/01 03:39:10;;;;;;;0.50;0.50;;;15.20;99.90;;;;;;5015757;28;20282;-71
2023/09/01 03:41:37;;;;;;;1.20;1.03;;;15.50;99.90;;;;;;5016019;28;20179;-73
2023/09/01 03:44:02;;;;;;;0.67;0.67;;;15.50;99.90;;;;;;5015627;28;20182;-72
2023/09/01 03:46:28;;;;;;;0.60;0.60;;;;;;;;;;5015490;28;20823;-74
2023/09/01 03:48:54;;;;;;;1.00;1.00;;;16.10;99.90;;;;;;5016403;28;20778;-73
2023/09/01 03:51:20;;;;;;;0.83;0.83;;;16.30;99.90;;;;;;5016467;28;20457;-73
2023/09/01 03:53:45;;;;;;;1.10;1.10;;;16.60;99.90;;;;;;5015560;28;20181;-72
2023/09/01 03:56:16;;;;;;;1.00;1.00;;;16.90;99.90;;;;;;5016477;28;20538;-70
2023/09/01 03:58:42;;;;;;;1.47;0.60;;;17.10;99.90;;;;;;5015638;28;20519;-70
2023/09/01 04:01:08;;;;;;;2.47;1.27;;;17.20;99.90;;;;;;5015769;28;20402;-71
2023/09/01 04:03:38;;;;;;;1.90;1.27;;;17.30;99.90;;;;;;5015819;28;20432;-71
2023/09/01 04:06:05;;;;;;;0.97;0.87;;;17.40;99.90;;;;;;5016094;28;20422;-70
2023/09/01 04:08:31;;;;;;;1.27;0.80;;;17.50;99.90;;;;;;5016125;28;20437;-71
2023/09/01 04:10:57;;;;;;;0.60;0.60;;;17.50;99.90;;;;;;5015395;28;20820;-70
2023/09/01 04:13:23;;;;;;;0.40;0.40;;;17.60;99.90;;;;;;5015460;28;20412;-70
2023/09/01 04:15:49;;;;;;;0.43;0.43;;;17.60;99.90;;;;;;5015632;28;20182;-70
2023/09/01 04:18:15;;;;;;;0.87;0.70;;;17.70;99.90;;;;;;5015477;28;20208;-70
2023/09/01 04:20:46;;;;;;;1.10;1.00;;;17.60;99.90;;;;;;5015242;28;20430;-70
2023/09/01 04:23:12;;;;;;;0.73;0.73;;;17.50;99.90;;;;;;5015333;28;20540;-70
2023/09/01 04:25:38;;;;;;;0.70;0.70;;;17.50;99.90;;;;;;5015304;28;20409;-70
2023/09/01 04:28:04;;;;;;;1.60;1.50;;;17.60;99.90;;;;;;5015331;28;20680;-70
2023/09/01 04:30:30;;;;;;;1.17;0.83;;;;;;;;;;5015388;28;20494;-70
2023/09/01 04:32:56;;;;;;;1.17;1.07;;;17.90;99.90;;;;;;5015152;28;20644;-70
2023/09/01 04:35:21;;;;;;;0.40;0.40;;;17.70;99.90;;;;;;5015621;28;20399;-70
2023/09/01 04:37:47;;;;;;;0.40;0.40;;;17.80;99.90;;;;;;5015613;28;20210;-69
2023/09/01 04:40:13;;;;;;;0.40;0.40;;;17.70;99.90;;;;;;5015186;28;20175;-71
2023/09/01 04:42:39;;;;;;;1.23;0.73;;;17.60;99.90;;;;;;5015021;28;20212;-70
2023/09/01 04:45:05;;;;;;;0.70;0.60;;;17.80;99.90;;;;;;5015228;28;20403;-69
2023/09/01 04:47:32;;;;;;;0.60;0.40;;;17.80;99.90;;;;;;5015178;28;20410;-70
2023/09/01 04:49:57;;;;;;;0.53;0.53;;;17.90;99.90;;;;;;5016045;28;21010;-70
2023/09/01 04:52:23;;;;;;;0.43;0.43;;;18.20;99.90;;;;;;5014724;28;20436;-73
2023/09/01 04:54:49;;;;;;;0.40;0.40;;;17.90;99.90;;;;;;5014827;28;20163;-73
2023/09/01 04:57:14;;;;;;;0.80;0.80;;;17.40;99.90;;;;;;5013744;28;20175;-73
2023/09/01 04:59:40;;;;;;;3.50;0.67;;;;;;;;;;5013917;28;20222;-73
2023/09/01 05:02:06;;;;;;;0.40;0.40;;;16.50;99.90;;;;;;5013640;28;20175;-73
2023/09/01 05:04:31;;;;;;;0.40;0.40;;;15.80;99.90;;;;;;5012910;28;20401;-74
2023/09/01 05:06:57;;;;;;;1.20;1.17;;;;;;;;;;5013246;28;20180;-74
2023/09/01 05:09:24;;;;;;;0.43;0.43;;;;;;;;;;5013294;28;20191;-75
2023/09/01 05:11:49;;;;;;;0.60;0.60;;;15.60;99.90;;;;;;5013125;28;20413;-73
2023/09/01 05:14:15;;;;;;;0.60;0.50;;;;;;;;;;5011696;28;20788;-72
2023/09/01 05:16:41;;;;;;;0.50;0.50;;;;;;;;;;5013121;28;20171;-75
2023/09/01 05:19:07;;;;;;;0.67;0.67;;;15.10;99.90;;;;;;5014513;28;20769;-75
2023/09/01 05:21:33;;;;;;;2.00;1.03;;;;;;;;;;5014589;28;20438;-73
2023/09/01 05:23:59;;;;;;;4.20;2.80;;;15.40;99.90;;;;;;5013845;28;20233;-71
2023/09/01 05:26:24;;;;;;;0.70;0.70;;;15.50;99.90;;;;;;5014085;28;20403;-72
2023/09/01 05:28:50;;;;;;;0.80;0.80;;;15.60;99.90;;;;;;5013794;28;20206;-75
2023/09/01 05:31:15;;;;;;;3.13;0.80;;;15.40;99.90;;;;;;5013978;28;20261;-75
2023/09/01 05:33:41;;;;;;;1.10;1.10;;;15.30;99.90;;;;;;5013733;28;20194;-72
2023/09/01 05:36:07;;;;;;;2.03;0.90;;;15.40;99.90;;;;;;5013955;28;20174;-75
2023/09/01 05:38:32;;;;;;;2.10;0.70;;;15.30;99.90;;;;;;5013593;28;20224;-75
2023/09/01 05:41:00;;;;;;;1.37;1.27;;;15.60;99.90;;;;;;5013907;28;20175;-75
2023/09/01 05:43:26;;;;;;;1.70;1.60;;;15.60;99.90;;;;;;5013646;28;20172;-75
2023/09/01 05:45:52;;;;;;;0.87;0.70;;;15.60;99.90;;;;;;5014152;28;20414;-74
2023/09/01 05:48:17;;;;;;;10.70;1.77;;;15.70;99.90;;;;;;5014193;28;20289;-75
2023/09/01 05:50:44;;;;;;;0.80;0.80;;;15.20;99.90;;;;;;5013705;28;20660;-74
2023/09/01 05:53:10;;;;;;;1.07;0.80;;;15.70;99.90;;;;;;5013505;28;20167;-76
2023/09/01 05:55:36;;;;;;;1.13;1.03;;;15.40;99.90;;;;;;5013854;28;20406;-75
2023/09/01 05:58:02;;;;;;;0.60;0.60;;;15.90;99.90;;;;;;5013571;28;20508;-75
2023/09/01 06:00:29;;;;;;;0.90;0.90;;;16.00;99.90;;;;;;5013946;28;20407;-75
2023/09/01 06:02:56;;;;;;;1.33;1.10;;;15.60;99.90;;;;;;5013669;28;20898;-75
2023/09/01 06:05:22;;;;;;;6.57;1.00;;;15.90;99.90;;;;;;5014023;28;20402;-75
2023/09/01 06:07:48;;;;;;;2.70;2.50;;;15.60;99.90;;;;;;5013615;28;20434;-76
2023/09/01 06:10:15;;;;;;;0.60;0.60;;;16.10;99.90;;;;;;5016994;28;20689;-75
2023/09/01 06:12:41;;;;;;;0.50;0.50;;;16.00;99.90;;;;;;5016268;28;20421;-76
2023/09/01 06:15:07;;;;;;;0.80;0.80;;;17.30;99.90;;;;;;5017849;28;20413;-75
2023/09/01 06:17:33;;;;;;;0.70;0.70;;;16.00;99.90;;;;;;5017756;28;20730;-75
2023/09/01 06:19:59;;;;;;;1.23;1.10;;;15.90;99.90;;;;;;5017569;28;20437;-76
2023/09/01 06:22:24;;;;;;;0.50;0.50;;;16.00;99.90;;;;;;5016601;28;20180;-76
2023/09/01 06:24:50;;;;;;;1.73;1.47;;;15.90;99.90;;;;;;5017256;28;20180;-77
2023/09/01 06:27:16;;;;;;;1.33;0.73;;;16.20;99.90;;;;;;5017692;28;20199;-76
2023/09/01 06:29:42;;;;;;;2.20;1.43;;;;;;;;;;5017325;28;20454;-76
2023/09/01 06:32:11;;;;;;;1.70;1.60;;;16.60;99.90;;;;;;5017187;28;20164;-74
2023/09/01 06:34:37;;;;;;;0.60;0.60;;;16.90;99.90;;;;;;5017347;28;20426;-75
2023/09/01 06:37:04;;;;;;;1.63;0.90;;;;;;;;;;5016421;28;20758;-75
2023/09/01 06:39:29;;;;;;;0.90;0.90;;;16.80;99.90;;;;;;5016371;28;20825;-75
2023/09/01 06:41:55;;;;;;;6.73;1.33;;;17.10;99.90;;;;;;5016253;28;20413;-74
2023/09/01 06:44:21;;;;;;;1.70;0.97;;;17.30;99.90;;;;;;5016345;28;20586;-74
2023/09/01 06:46:46;;;;;;;4.00;0.87;;;17.00;99.90;;;;;;5016724;28;20214;-75
2023/09/01 06:49:12;;;;;;;1.33;0.80;;;17.30;99.90;;;;;;5015657;28;20218;-75
2023/09/01 06:51:38;;;;;;;0.60;0.60;;;;;;;;;;5015581;28;20258;-75
2023/09/01 06:54:04;;;;;;;0.70;0.70;;;17.30;99.90;;;;;;5016190;28;20630;-75
2023/09/01 06:56:30;;;;;;;1.00;0.70;;;17.70;99.90;;;;;;5015535;28;20418;-74
2023/09/01 06:58:55;;;;;;;0.90;0.90;;;17.20;99.90;;;;;;5015990;28;20193;-73
2023/09/01 07:01:21;;;;;;;0.93;0.93;;;17.80;99.90;;;;;;5015758;28;20219;-73
2023/09/01 07:03:47;;;;;;;1.67;1.37;;;;;;;;;;5015733;28;20232;-74
2023/09/01 07:06:13;;;;;;;0.80;0.80;;;17.90;99.90;;;;;;5019433;28;20182;-69
2023/09/01 07:08:39;;;;;;;1.80;1.20;;;18.30;99.90;;;;;;5016963;28;20787;-69
2023/09/01 07:11:09;;;;;;;1.43;1.33;;;18.30;99.90;;;;;;5016634;28;20209;-69
2023/09/01 07:13:35;;;;;;;1.13;1.13;;;18.50;99.90;;;;;;5016583;28;20541;-70
2023/09/01 07:16:01;;;;;;;0.83;0.63;;;18.50;99.90;;;;;;5016864;28;20511;-67
2023/09/01 07:18:29;;;;;;;0.70;0.70;;;18.70;99.90;;;;;;5021301;28;20511;-75
2023/09/01 07:20:59;;;;;;;1.90;1.40;;;18.80;99.90;;;;;;5023970;28;20195;-73
2023/09/01 07:23:24;;;;;;;0.77;0.60;;;18.90;99.90;;;;;;5024381;28;20468;-74
2023/09/01 07:25:53;;;;;;;0.73;0.73;;;19.70;99.90;;;;;;5024524;28;20419;-74
2023/09/01 07:28:19;;;;;;;0.70;0.70;;;20.90;99.90;;;;;;5022984;28;20197;-75
2023/09/01 07:30:44;;;;;;;1.03;1.03;;;21.80;99.90;;;;;;5023410;28;20461;-73
2023/09/01 07:33:10;;;;;;;0.50;0.50;;;22.20;99.90;;;;;;5024116;28;20815;-73
2023/09/01 07:35:36;;;;;;;1.00;0.90;;;22.40;99.90;;;;;;5023337;28;20175;-74
2023/09/01 07:38:03;;;;;;;0.50;0.50;;;;;;;;;;5017176;28;20200;-73
2023/09/01 07:40:32;;;;;;;1.10;0.70;;;;;;;;;;5016267;28;20259;-74
2023/09/01 07:42:59;;;;;;;0.43;0.40;;;22.10;99.90;;;;;;5015932;28;20442;-73
2023/09/01 07:45:24;;;;;;;0.87;0.60;;;21.30;99.90;;;;;;5016323;28;20416;-74
2023/09/01 07:47:50;;;;;;;0.50;0.50;;;20.90;99.90;;;;;;5015690;28;20509;-75
2023/09/01 07:50:15;;;;;;;0.40;0.40;;;21.00;99.90;;;;;;5015927;28;20622;-73
2023/09/01 07:52:41;;;;;;;2.00;0.80;;;20.80;99.90;;;;;;5015727;28;20186;-74
2023/09/01 07:55:07;;;;;;;0.80;0.80;;;;;;;;;;5016155;28;20533;-74
2023/09/01 07:57:33;;;;;;;0.50;0.50;;;23.30;99.90;;;;;;5015841;28;20177;-74
2023/09/01 07:59:58;;;;;;;0.60;0.60;;;24.00;99.90;;;;;;5015917;28;20990;-73
2023/09/01 08:02:24;;;;;;;0.90;0.60;;;23.20;99.90;;;;;;5015366;28;20631;-74
2023/09/01 08:04:50;;;;;;;0.70;0.60;;;23.30;99.90;;;;;;5015414;28;20229;-75
2023/09/01 08:07:16;;;;;;;0.53;0.53;;;;;;;;;;5015767;28;20417;-74
2023/09/01 08:09:41;;;;;;;0.50;0.50;;;22.70;99.90;;;;;;5015306;28;20207;-73
2023/09/01 08:12:08;;;;;;;0.43;0.43;;;;;;;;;;5015220;28;20905;-72
2023/09/01 08:14:34;;;;;;;0.80;0.73;;;22.70;99.90;;;;;;5015091;28;20491;-73
2023/09/01 08:17:00;;;;;;;0.60;0.60;;;;;;;;;;5014670;28;20493;-74
2023/09/01 08:19:26;;;;;;;0.70;0.70;;;;;;;;;;5014688;28;20286;-74
2023/09/01 08:21:52;;;;;;;0.53;0.50;;;;;;;;;;5015385;28;20394;-73
2023/09/01 08:24:17;;;;;;;0.50;0.50;;;22.70;94.00;;;;;;5014942;28;20482;-72
2023/09/01 08:26:43;;;;;;;0.60;0.60;;;22.90;99.90;;;;;;5015102;28;20472;-73
2023/09/01 08:29:10;;;;;;;1.03;0.63;;;;;;;;;;5014428;28;20199;-75
2023/09/01 08:31:35;;;;;;;1.33;0.60;;;23.50;93.70;;;;;;5013299;28;20462;-73
2023/09/01 08:34:02;;;;;;;0.60;0.60;;;23.40;99.90;;;;;;5014247;28;20472;-73
2023/09/01 08:36:28;;;;;;;1.33;1.23;;;23.10;99.90;;;;;;5015132;28;20183;-74
2023/09/01 08:38:54;;;;;;;0.40;0.40;;;23.00;99.90;;;;;;5014666;28;20525;-74
2023/09/01 08:41:21;;;;;;;0.50;0.50;;;22.50;99.90;;;;;;5015074;28;20497;-74
2023/09/01 08:43:50;;;;;;;0.90;0.70;;;22.10;99.90;;;;;;5014731;28;20602;-75
2023/09/01 08:46:21;;;;;;;4.03;0.70;;;22.00;99.90;;;;;;5014749;28;20457;-75
2023/09/01 08:48:47;;;;;;;0.50;0.50;;;;;;;;;;5015137;28;20420;-74
2023/09/01 08:51:14;;;;;;;0.70;0.53;;;21.70;95.90;;;;;;5014870;28;20458;-74
2023/09/01 08:53:41;;;;;;;0.63;0.60;;;21.50;96.40;;;;;;5014451;28;20448;-74
2023/09/01 08:56:08;;;;;;;0.77;0.63;;;;;;;;;;5014636;28;20432;-74
2023/09/01 08:58:34;;;;;;;0.60;0.47;;;21.20;99.90;;;;;;5014578;28;20420;-73
2023/09/01 09:00:59;;;;;;;0.50;0.50;;;21.30;99.90;;;;;;5014455;28;20433;-75
2023/09/01 09:03:25;;;;;;;0.57;0.57;;;;;;;;;;5014151;28;20417;-74
2023/09/01 09:05:52;;;;;;;0.90;0.90;;;;;;;;;;5014725;28;20180;-74
2023/09/01 09:08:17;;;;;;;0.60;0.60;;;21.90;99.90;;;;;;5014363;28;20932;-73
2023/09/01 09:10:46;;;;;;;0.60;0.60;;;21.30;99.90;;;;;;5014144;28;20454;-75
2023/09/01 09:13:22;;;;;;;1.00;0.60;;;21.80;99.90;;;;;;5014108;28;20647;-74
2023/09/01 09:16:13;;;;;;;1.00;0.90;;;21.40;97.10;;;;;;5014349;28;20434;-75
2023/09/01 09:18:44;;;;;;;1.13;0.50;;;21.80;95.30;;;;;;5014199;28;20437;-75
2023/09/01 09:21:27;;;;;;;0.67;0.40;;;22.90;99.90;;;;;;5013938;28;20430;-73
2023/09/01 09:23:54;;;;;;;1.70;1.13;;;23.00;93.10;;;;;;5014023;28;20388;-75
2023/09/01 09:26:27;;;;;;;1.30;1.20;;;23.30;99.90;;;;;;5013993;28;20374;-73
2023/09/01 09:28:54;;;;;;;1.23;0.60;;;;;;;;;;5014026;28;20529;-75
2023/09/01 09:31:30;;;;;;;0.60;0.53;;;24.10;99.90;;;;;;5014315;28;20429;-74
2023/09/01 09:33:56;;;;;;;0.63;0.63;;;;;;;;;;5013854;28;20385;-74
2023/09/01 09:36:37;;;;;;;0.93;0.83;;;23.90;99.90;;;;;;5013852;28;20374;-74
2023/09/01 09:39:06;;;;;;;0.50;0.50;;;;;;;;;;5013530;28;20798;-74
2023/09/01 09:41:45;;;;;;;0.50;0.50;;;24.80;99.90;;;;;;5013584;28;20908;-74
2023/09/01 09:44:23;;;;;;;0.50;0.50;;;24.40;99.90;;;;;;5012915;28;20469;-75
2023/09/01 09:46:49;;;;;;;0.50;0.50;;;23.50;92.90;;;;;;5013706;28;20424;-73
2023/09/01 09:49:15;;;;;;;1.57;0.70;;;;;;;;;;5013688;28;20506;-75
2023/09/01 09:51:42;;;;;;;0.50;0.50;;;23.70;92.30;;;;;;5013793;28;20433;-73
2023/09/01 09:54:12;;;;;;;1.83;0.70;;;23.90;99.90;;;;;;5013408;28;20402;-75
2023/09/01 09:56:40;;;;;;;0.40;0.40;;;24.00;99.90;;;;;;5013610;28;20407;-75
2023/09/01 09:59:09;;;;;;;0.50;0.50;;;23.40;93.30;;;;;;5013432;28;20434;-75
2023/09/01 10:01:37;;;;;;;0.50;0.50;;;23.30;99.90;;;;;;5013569;28;20471;-75
2023/09/01 10:04:04;;;;;;;0.97;0.80;;;23.50;99.90;;;;;;5013419;28;20414;-75
2023/09/01 10:06:32;;;;;;;0.40;0.40;;;24.00;93.30;;;;;;5013648;28;20409;-74
2023/09/01 10:08:59;;;;;;;0.57;0.57;;;24.20;91.90;;;;;;5013543;28;20430;-75
2023/09/01 10:11:28;;;;;;;5.03;0.87;;;24.20;99.90;;;;;;5013263;28;20939;-74
2023/09/01 10:13:55;;;;;;;0.60;0.60;;;24.40;99.90;;;;;;5013271;28;20875;-74
2023/09/01 10:16:23;;;;;;;0.50;0.50;;;24.70;91.10;;;;;;5013337;28;20382;-74
2023/09/01 10:18:49;;;;;;;1.57;0.83;;;26.90;86.90;;;;;;5013277;28;20850;-73
2023/09/01 10:21:19;;;;;;;0.67;0.50;;;26.80;87.50;;;;;;5013488;28;20741;-74
2023/09/01 10:23:45;;;;;;;0.50;0.40;;;27.90;99.90;;;;;;5012993;28;20437;-74
2023/09/01 10:26:28;;;;;;;0.50;0.50;;;28.10;79.00;;;;;;5013496;28;20407;-75
2023/09/01 10:29:00;;;;;;;0.40;0.40;;;28.20;75.30;;;;;;5013504;28;20429;-73
2023/09/01 10:31:26;;;;;;;0.60;0.57;;;28.00;74.90;;;;;;5013248;28;20480;-75
2023/09/01 10:34:04;;;;;;;0.80;0.70;;;28.30;77.90;;;;;;5013204;28;20936;-75
2023/09/01 10:36:31;;;;;;;4.73;1.07;;;;;;;;;;5013148;28;20435;-75
2023/09/01 10:39:19;;;;;;;0.67;0.67;;;29.00;98.70;;;;;;5013241;28;20434;-74
2023/09/01 10:41:49;;;;;;;0.50;0.50;;;29.10;75.10;;;;;;5013403;28;20411;-75
2023/09/01 10:44:15;;;;;;;0.60;0.60;;;29.10;75.60;;;;;;5013021;28;20414;-73
2023/09/01 10:46:41;;;;;;;1.00;0.90;;;;;;;;;;5013154;28;20769;-74
2023/09/01 10:49:09;;;;;;;0.70;0.70;;;28.30;90.10;;;;;;5013051;28;20207;-74
2023/09/01 10:51:43;;;;;;;0.50;0.50;;;27.20;99.40;;;;;;5013070;28;20524;-74
2023/09/01 10:54:14;;;;;;;0.77;0.50;;;27.00;79.10;;;;;;5012987;28;20437;-74
2023/09/01 10:57:04;;;;;;;0.40;0.40;;;26.70;99.90;;;;;;5015657;28;20559;-75
2023/09/01 10:59:31;;;;;;;0.40;0.40;;;25.90;82.30;;;;;;5016989;28;20430;-74
2023/09/01 11:02:20;;;;;;;0.60;0.57;;;25.80;78.90;;;;;;5016796;28;20410;-74
2023/09/01 11:04:46;;;;;;;0.93;0.73;;;25.70;99.90;;;;;;5016648;28;20909;-73
2023/09/01 11:07:13;;;;;;;0.80;0.60;;;;;;;;;;5016476;28;20402;-75
2023/09/01 11:09:44;;;;;;;1.27;0.50;;;24.90;80.90;;;;;;5015034;28;20630;-74
2023/09/01 11:12:13;;;;;;;0.60;0.50;;;24.40;90.30;;;;;;5016440;28;20405;-73
2023/09/01 11:14:54;;;;;;;0.60;0.60;;;24.00;87.60;;;;;;5016520;28;20377;-73
2023/09/01 11:17:43;;;;;;;0.70;0.70;;;23.70;83.60;;;;;;5016587;28;20381;-74
2023/09/01 11:20:11;;;;;;;0.60;0.60;;;23.70;85.30;;;;;;5016132;28;20420;-73
2023/09/01 11:22:38;;;;;;;0.83;0.70;;;23.80;89.40;;;;;;5015858;28;20389;-75
2023/09/01 11:25:06;;;;;;;2.77;0.70;;;23.70;99.90;;;;;;5016133;28;20417;-73
2023/09/01 11:27:32;;;;;;;0.50;0.50;;;24.10;99.90;;;;;;5016134;28;20380;-73
2023/09/01 11:30:03;;;;;;;0.60;0.50;;;23.70;90.30;;;;;;5016143;28;20974;-74
2023/09/01 11:32:29;;;;;;;1.57;0.80;;;;;;;;;;5015895;28;20180;-73
2023/09/01 11:34:55;;;;;;;0.77;0.70;;;23.20;99.90;;;;;;5015689;28;20413;-74
2023/09/01 11:37:34;;;;;;;0.80;0.63;;;24.50;99.90;;;;;;5016017;28;20445;-75
2023/09/01 11:40:00;;;;;;;0.90;0.60;;;23.40;99.90;;;;;;5015738;28;20278;-75
2023/09/01 11:42:26;;;;;;;1.17;0.60;;;23.00;99.90;;;;;;5016068;28;20769;-74
2023/09/01 11:44:52;;;;;;;0.30;0.30;;;23.10;99.90;;;;;;5016414;28;20180;-74
2023/09/01 11:47:18;;;;;;;1.10;1.00;;;;;;;;;;5015829;28;20970;-74
2023/09/01 11:49:43;;;;;;;0.70;0.70;;;23.10;89.20;;;;;;5015852;28;20195;-75
2023/09/01 11:52:09;;;;;;;0.40;0.40;;;21.90;99.90;;;;;;5014758;28;20460;-75
2023/09/01 11:54:41;;;;;;;0.70;0.50;;;23.40;99.90;;;;;;5013799;28;20262;-74
2023/09/01 11:57:13;;;;;;;0.80;0.80;;;23.20;89.70;;;;;;5015129;28;20176;-73
2023/09/01 11:59:45;;;;;;;2.07;0.70;;;23.40;88.10;;;;;;5015613;28;20485;-75
2023/09/01 12:02:19;;;;;;;1.17;0.90;;;23.60;89.10;;;;;;5015285;28;20377;-75
2023/09/01 12:04:49;;;;;;;1.00;0.50;;;23.50;87.50;;;;;;5015494;28;20405;-73
2023/09/01 12:07:30;;;;;;;1.17;0.60;;;23.50;86.90;;;;;;5015239;28;20407;-75
2023/09/01 12:09:56;;;;;;;1.37;0.70;;;23.40;87.50;;;;;;5015318;28;20866;-74
2023/09/01 12:12:22;;;;;;;0.50;0.50;;;;;;;;;;5015121;28;20438;-73
2023/09/01 12:14:49;;;;;;;0.53;0.50;;;24.00;99.90;;;;;;5015279;28;20175;-74
2023/09/01 12:17:19;;;;;;;4.80;1.10;;;24.40;99.90;;;;;;5015319;28;20882;-75
2023/09/01 12:19:47;;;;;;;1.00;0.60;;;24.60;89.70;;;;;;5015089;28;20515;-74
2023/09/01 12:22:14;;;;;;;0.63;0.63;;;;;;;;;;5015170;28;20377;-73
2023/09/01 12:24:55;;;;;;;1.23;0.77;;;24.90;85.60;;;;;;5015387;28;20378;-74
2023/09/01 12:27:22;;;;;;;0.77;0.60;;;;;;;;;;5015109;28;20398;-74
2023/09/01 12:29:48;;;;;;;0.50;0.50;;;24.70;99.90;;;;;;5014817;28;20430;-74
2023/09/01 12:32:14;;;;;;;0.60;0.60;;;24.40;99.90;;;;;;5014911;28;20409;-75
2023/09/01 12:34:41;;;;;;;1.80;0.70;;;24.60;87.40;;;;;;5015080;28;20381;-74
2023/09/01 12:37:07;;;;;;;0.57;0.57;;;;;;;;;;5014998;28;20898;-74
2023/09/01 12:39:33;;;;;;;0.77;0.60;;;24.10;92.00;;;;;;5014757;28;20451;-75
2023/09/01 12:41:59;;;;;;;0.63;0.63;;;;;;;;;;5014797;28;20931;-74
2023/09/01 12:44:27;;;;;;;0.40;0.40;;;;;;;;;;5014626;28;20410;-73
2023/09/01 12:46:54;;;;;;;1.70;0.97;;;23.70;88.90;;;;;;5014767;28;20773;-74
2023/09/01 12:49:19;;;;;;;1.53;0.60;;;23.60;89.70;;;;;;5014733;28;20430;-74
2023/09/01 12:51:45;;;;;;;0.40;0.40;;;;;;;;;;5014486;28;20468;-74
2023/09/01 12:54:11;;;;;;;0.87;0.87;;;23.50;86.20;;;;;;5013828;28;20258;-73
2023/09/01 12:56:36;;;;;;;0.80;0.60;;;23.60;88.80;;;;;;5014879;28;20481;-68
2023/09/01 12:59:03;;;;;;;2.13;1.03;;;;;;;;;;5014324;28;20279;-75
2023/09/01 13:01:28;;;;;;;0.73;0.73;;;23.40;88.20;;;;;;5013181;28;20175;-74
2023/09/01 13:03:54;;;;;;;0.83;0.60;;;23.00;99.90;;;;;;5014236;28;20437;-73